Time;durP1;ratioP1;P1;durP2;ratioP2;P2;SDS_P1;SDS_P2;PMS_P1;PMS_P2;Temp;Humidity;BMP_temperature;BMP_pressure;BME280_temperature;BME280_humidity;BME280_pressure;Samples;Min_cycle;Max_cycle;Signal;HPM_P1;HPM_P2
2022/03/01 00:02:07;;;;;;;4.97;3.33;;;8.20;66.30;;;;;;20713491;28;20029;-75
2022/03/01 00:12:08;;;;;;;5.38;2.92;;;8.20;66.30;;;;;;20696640;28;20040;-76
2022/03/01 00:22:08;;;;;;;4.65;2.40;;;8.20;66.20;;;;;;20727748;28;20041;-76
2022/03/01 00:32:10;;;;;;;6.43;3.30;;;8.20;66.10;;;;;;20696739;28;20034;-76
2022/03/01 00:42:11;;;;;;;6.07;3.28;;;8.20;66.10;;;;;;20710637;28;20038;-76
2022/03/01 00:52:11;;;;;;;6.90;2.88;;;8.10;66.00;;;;;;20710627;28;20545;-75
2022/03/01 01:02:12;;;;;;;4.43;2.30;;;8.10;66.00;;;;;;20709919;28;20478;-77
2022/03/01 01:12:12;;;;;;;4.90;2.50;;;8.10;65.90;;;;;;20710213;28;20164;-77
2022/03/01 01:32:32;;;;;;;9.25;3.20;;;8.10;65.90;;;;;;20710370;28;20033;-76
2022/03/01 01:42:32;;;;;;;5.13;2.88;;;8.10;65.80;;;;;;20740285;28;20129;-76
2022/03/01 01:52:33;;;;;;;5.35;2.72;;;8.10;65.80;;;;;;20723623;28;20034;-76
2022/03/01 02:02:34;;;;;;;6.65;3.10;;;8.10;65.80;;;;;;20722748;28;20307;-76
2022/03/01 02:12:34;;;;;;;6.22;2.63;;;8.00;65.70;;;;;;20737879;28;20291;-76
2022/03/01 02:22:35;;;;;;;5.82;3.67;;;8.00;65.70;;;;;;20720833;28;20451;-76
2022/03/01 02:32:36;;;;;;;6.70;3.10;;;8.00;65.60;;;;;;20736748;28;20390;-76
2022/03/01 02:42:38;;;;;;;7.13;3.28;;;8.00;65.60;;;;;;20719566;28;20045;-76
2022/03/01 02:52:38;;;;;;;3.63;2.28;;;8.00;65.50;;;;;;20687141;28;20030;-76
2022/03/01 03:02:39;;;;;;;5.95;2.78;;;8.00;65.50;;;;;;20718614;28;20064;-76
2022/03/01 03:12:40;;;;;;;5.40;2.63;;;8.00;65.50;;;;;;20701294;28;20040;-76
2022/03/01 03:22:40;;;;;;;6.65;3.40;;;8.00;65.50;;;;;;20700967;28;20723;-76
2022/03/01 03:32:41;;;;;;;10.15;3.38;;;8.00;65.40;;;;;;20699404;28;20100;-76
2022/03/01 03:42:44;;;;;;;6.65;2.95;;;8.00;65.30;;;;;;20673703;28;20038;-76
2022/03/01 03:52:44;;;;;;;5.65;3.00;;;7.90;65.30;;;;;;20713347;28;20033;-76
2022/03/01 04:02:45;;;;;;;5.40;3.07;;;7.90;65.30;;;;;;20696810;28;20041;-75
2022/03/01 04:12:46;;;;;;;5.32;2.95;;;7.90;65.30;;;;;;20714050;28;20286;-75
2022/03/01 04:22:47;;;;;;;6.63;2.40;;;7.90;65.20;;;;;;20696138;28;20069;-76
2022/03/01 04:32:47;;;;;;;5.60;3.03;;;7.90;65.20;;;;;;20696145;28;20040;-76
2022/03/01 04:42:49;;;;;;;6.40;3.00;;;7.90;65.20;;;;;;20726736;28;20041;-76
2022/03/01 04:52:50;;;;;;;4.90;2.58;;;7.90;65.10;;;;;;20710460;28;20321;-76
2022/03/01 05:02:50;;;;;;;7.18;3.35;;;7.90;65.10;;;;;;20693511;28;20129;-75
2022/03/01 05:12:56;;;;;;;5.10;2.80;;;7.90;65.10;;;;;;20702347;28;20036;-76
2022/03/01 05:22:56;;;;;;;7.63;3.70;;;7.90;64.90;;;;;;20742025;28;20038;-75
2022/03/01 05:32:57;;;;;;;5.78;3.05;;;8.20;64.40;;;;;;20708726;28;20042;-72
2022/03/01 05:42:58;;;;;;;5.53;2.63;;;8.60;63.40;;;;;;20723924;28;20042;-75
2022/03/01 05:52:58;;;;;;;6.03;2.90;;;9.10;62.00;;;;;;20699188;28;20297;-76
2022/03/01 06:03:00;;;;;;;4.65;2.67;;;9.50;60.70;;;;;;20720477;28;20080;-78
2022/03/01 06:13:01;;;;;;;7.82;3.28;;;9.70;59.80;;;;;;20722230;28;20037;-73
2022/03/01 06:23:01;;;;;;;5.63;3.42;;;9.80;59.20;;;;;;20687132;28;20061;-77
2022/03/01 06:33:02;;;;;;;7.00;3.25;;;9.70;59.00;;;;;;20720326;28;20398;-74
2022/03/01 06:43:03;;;;;;;7.40;3.38;;;9.60;58.90;;;;;;20752623;28;20300;-76
2022/03/01 06:53:04;;;;;;;7.72;3.03;;;9.40;59.30;;;;;;20718570;28;20089;-77
2022/03/01 07:03:04;;;;;;;6.05;3.30;;;9.10;59.80;;;;;;20734091;28;20072;-78
2022/03/01 07:13:05;;;;;;;6.20;3.50;;;8.90;60.40;;;;;;20739269;28;20092;-76
2022/03/01 07:23:06;;;;;;;6.43;2.90;;;8.70;60.90;;;;;;20704598;28;20046;-77
2022/03/01 07:33:07;;;;;;;5.63;3.05;;;8.60;61.40;;;;;;20711999;28;20033;-86
2022/03/01 07:43:07;;;;;;;6.03;2.80;;;8.40;61.70;;;;;;20765448;28;20521;-86
2022/03/01 07:53:08;;;;;;;7.07;3.25;;;8.40;62.00;;;;;;20764677;28;20280;-82
2022/03/01 08:03:08;;;;;;;6.20;3.17;;;8.30;62.30;;;;;;20735207;28;20034;-84
2022/03/01 08:13:09;;;;;;;5.15;2.42;;;8.20;62.60;;;;;;20754194;28;20040;-85
2022/03/01 08:23:10;;;;;;;5.20;2.60;;;8.20;62.90;;;;;;20717488;28;20437;-83
2022/03/01 08:33:11;;;;;;;5.97;2.85;;;8.20;63.10;;;;;;20730435;28;20036;-85
2022/03/01 08:43:12;;;;;;;4.82;2.55;;;8.20;63.20;;;;;;20745449;28;20040;-79
2022/03/01 08:53:13;;;;;;;6.95;3.00;;;8.10;63.30;;;;;;20708196;28;20058;-80
2022/03/01 09:03:13;;;;;;;5.85;2.55;;;8.20;63.40;;;;;;20728494;28;20042;-82
2022/03/01 09:13:14;;;;;;;6.75;2.75;;;8.20;63.40;;;;;;20648304;28;20391;-82
2022/03/01 09:23:14;;;;;;;6.57;2.63;;;8.20;63.50;;;;;;20726461;28;20084;-81
2022/03/01 09:33:15;;;;;;;5.87;2.97;;;8.20;63.50;;;;;;20693764;28;20038;-81
2022/03/01 09:43:17;;;;;;;6.38;2.80;;;8.20;63.60;;;;;;20710069;28;20319;-84
2022/03/01 09:53:18;;;;;;;4.00;2.08;;;8.20;63.60;;;;;;20722962;28;20022;-83
2022/03/01 10:03:20;;;;;;;5.07;2.53;;;8.20;63.70;;;;;;20761811;28;20034;-82
2022/03/01 10:13:22;;;;;;;3.67;2.08;;;8.20;63.80;;;;;;20715792;28;20343;-81
2022/03/01 10:23:23;;;;;;;4.97;2.05;;;8.20;63.80;;;;;;20718934;28;20041;-80
2022/03/01 10:33:24;;;;;;;4.68;1.63;;;8.20;63.90;;;;;;20715651;28;20065;-85
2022/03/01 10:43:25;;;;;;;4.68;1.98;;;8.20;64.00;;;;;;20739324;28;20374;-79
2022/03/01 10:53:37;;;;;;;3.85;2.05;;;8.20;64.00;;;;;;20716658;28;20526;-76
2022/03/01 11:03:38;;;;;;;4.93;2.03;;;8.20;64.10;;;;;;20706013;28;20034;-80
2022/03/01 11:13:40;;;;;;;2.40;1.45;;;8.20;64.20;;;;;;20629163;28;20044;-80
2022/03/01 11:23:41;;;;;;;4.88;1.85;;;8.10;64.20;;;;;;21051104;22;20032;-81
2022/03/01 11:33:42;;;;;;;5.22;1.90;;;8.20;64.40;;;;;;20683460;28;20050;-84
2022/03/01 11:43:43;;;;;;;4.35;2.67;;;8.20;64.40;;;;;;20731027;28;20042;-80
2022/03/01 11:53:45;;;;;;;5.80;2.20;;;8.10;64.40;;;;;;20711113;28;20029;-82
2022/03/01 12:03:47;;;;;;;5.95;2.45;;;8.20;64.50;;;;;;20713347;28;20564;-76
2022/03/01 12:13:47;;;;;;;5.28;2.00;;;8.10;64.40;;;;;;20714781;28;20080;-76
2022/03/01 12:23:49;;;;;;;4.47;1.90;;;8.10;64.40;;;;;;20714626;28;20054;-77
2022/03/01 12:33:53;;;;;;;3.72;1.85;;;8.20;64.40;;;;;;20711300;28;20097;-79
2022/03/01 12:43:58;;;;;;;5.00;2.15;;;8.20;64.50;;;;;;20685052;28;20038;-79
2022/03/01 12:54:06;;;;;;;2.92;1.70;;;8.20;64.50;;;;;;20696261;28;20038;-80
2022/03/01 13:04:07;;;;;;;3.83;1.88;;;8.20;64.50;;;;;;20712784;28;20042;-78
2022/03/01 13:14:09;;;;;;;2.90;1.60;;;8.20;64.50;;;;;;20737531;28;20120;-81
2022/03/01 13:24:24;;;;;;;3.58;1.70;;;8.20;64.50;;;;;;20739720;28;20041;-78
2022/03/01 13:34:25;;;;;;;4.72;2.13;;;8.30;64.40;;;;;;20681630;28;20421;-76
2022/03/01 13:44:27;;;;;;;3.70;1.65;;;8.60;63.90;;;;;;20678446;28;20045;-78
2022/03/01 13:54:28;;;;;;;3.00;1.50;;;8.90;63.00;;;;;;20711792;28;20512;-80
2022/03/01 14:04:28;;;;;;;4.22;1.58;;;8.90;62.80;;;;;;20691360;28;20038;-74
2022/03/01 14:14:29;;;;;;;3.93;1.57;;;8.80;62.80;;;;;;20720782;28;20034;-81
2022/03/01 14:24:29;;;;;;;4.73;2.27;;;8.70;62.90;;;;;;20722064;28;20313;-77
2022/03/01 14:34:30;;;;;;;3.85;1.95;;;8.70;62.90;;;;;;20704582;28;20272;-74
2022/03/01 14:44:31;;;;;;;2.38;1.38;;;8.70;62.70;;;;;;20735447;28;20038;-74
2022/03/01 14:54:31;;;;;;;3.97;1.95;;;8.70;62.70;;;;;;20717060;28;20041;-76
2022/03/01 15:04:34;;;;;;;4.60;2.20;;;8.60;62.70;;;;;;20715371;28;20048;-76
2022/03/01 15:14:34;;;;;;;3.28;1.70;;;8.60;62.70;;;;;;20799238;28;20033;-77
2022/03/01 15:24:36;;;;;;;3.40;1.50;;;8.50;62.90;;;;;;20783014;28;20063;-77
2022/03/01 15:34:36;;;;;;;3.88;2.05;;;8.50;63.10;;;;;;20798512;28;20294;-82
2022/03/01 15:44:37;;;;;;;4.00;1.85;;;8.60;63.30;;;;;;20798897;28;20125;-79
2022/03/01 15:54:38;;;;;;;3.50;2.00;;;8.60;63.30;;;;;;20720478;28;20033;-81
2022/03/01 16:04:39;;;;;;;3.15;1.40;;;8.80;63.00;;;;;;20713733;28;20068;-81
2022/03/01 16:14:39;;;;;;;4.20;2.03;;;9.00;62.60;;;;;;20713413;28;20034;-81
2022/03/01 16:24:42;;;;;;;3.72;2.00;;;9.30;62.10;;;;;;20755522;28;20045;-81
2022/03/01 16:34:43;;;;;;;9.63;2.30;;;9.40;61.50;;;;;;20711749;28;20041;-81
2022/03/01 16:44:43;;;;;;;4.40;1.70;;;9.50;61.20;;;;;;20727412;28;20034;-80
2022/03/01 16:54:44;;;;;;;4.97;2.58;;;9.40;61.20;;;;;;20633060;28;20035;-77
2022/03/01 17:04:45;;;;;;;6.10;2.42;;;9.20;61.60;;;;;;20629580;28;20053;-74
2022/03/01 17:14:45;;;;;;;5.70;2.00;;;9.10;62.00;;;;;;20646094;28;20073;-75
2022/03/01 17:24:47;;;;;;;4.40;2.03;;;8.90;62.30;;;;;;20645423;28;20537;-76
2022/03/01 17:34:49;;;;;;;3.13;1.90;;;8.80;62.40;;;;;;20645625;28;20775;-75
2022/03/01 17:44:50;;;;;;;2.80;1.48;;;8.70;62.80;;;;;;20675152;28;20084;-74
2022/03/01 17:54:51;;;;;;;5.13;1.88;;;8.60;63.10;;;;;;20685965;28;20062;-76
2022/03/01 18:04:51;;;;;;;4.75;1.60;;;8.50;63.30;;;;;;20646530;28;20061;-77
2022/03/01 18:14:52;;;;;;;3.97;2.37;;;8.50;63.50;;;;;;20670494;28;20292;-79
2022/03/01 18:24:52;;;;;;;4.00;1.83;;;8.40;63.60;;;;;;20656526;28;20396;-75
2022/03/01 18:34:53;;;;;;;5.80;2.15;;;8.40;63.80;;;;;;20656356;28;20042;-79
2022/03/01 18:44:54;;;;;;;4.32;2.00;;;8.40;63.90;;;;;;20640133;28;20069;-78
2022/03/01 18:54:55;;;;;;;3.33;1.77;;;8.40;64.00;;;;;;20661712;28;20105;-75
2022/03/01 19:04:55;;;;;;;4.68;2.47;;;8.40;63.90;;;;;;20731473;28;20048;-76
2022/03/01 19:14:57;;;;;;;5.53;1.97;;;8.30;63.90;;;;;;20702968;28;20076;-76
2022/03/01 19:24:58;;;;;;;3.33;1.90;;;8.30;64.00;;;;;;20718924;28;20304;-76
2022/03/01 19:34:59;;;;;;;4.38;2.20;;;8.30;64.10;;;;;;20716168;28;20125;-75
2022/03/01 19:45:00;;;;;;;3.90;1.92;;;8.30;64.10;;;;;;20697809;28;20453;-75
2022/03/01 19:55:00;;;;;;;4.43;2.30;;;8.30;64.00;;;;;;20646976;28;20026;-76
2022/03/01 20:05:01;;;;;;;5.22;1.95;;;8.30;64.00;;;;;;20650016;28;20062;-76
2022/03/01 20:15:02;;;;;;;6.25;2.60;;;8.30;64.00;;;;;;20688066;28;20069;-75
2022/03/01 20:25:04;;;;;;;3.13;1.80;;;8.30;64.00;;;;;;20676954;28;20057;-74
2022/03/01 20:35:05;;;;;;;5.63;2.25;;;8.30;64.10;;;;;;20693843;28;20038;-76
2022/03/01 20:45:06;;;;;;;5.07;2.70;;;8.30;64.10;;;;;;20701276;28;20433;-75
2022/03/01 20:55:07;;;;;;;2.90;1.95;;;8.30;64.10;;;;;;20725251;28;20037;-77
2022/03/01 21:05:07;;;;;;;3.80;2.08;;;8.30;64.10;;;;;;20723685;28;20034;-77
2022/03/01 21:15:09;;;;;;;5.18;2.67;;;8.30;64.10;;;;;;20687767;28;20496;-76
2022/03/01 21:25:10;;;;;;;3.33;2.08;;;8.30;64.00;;;;;;20677030;28;20076;-77
2022/03/01 21:35:10;;;;;;;5.47;2.67;;;8.30;64.00;;;;;;20688915;28;20030;-76
2022/03/01 21:45:11;;;;;;;4.85;2.47;;;8.30;64.10;;;;;;20675756;28;20045;-75
2022/03/01 21:55:12;;;;;;;5.13;2.70;;;8.30;64.10;;;;;;20717844;28;20045;-76
2022/03/01 22:05:13;;;;;;;4.38;2.38;;;8.30;64.10;;;;;;20728183;28;20037;-77
2022/03/01 22:15:14;;;;;;;4.00;1.73;;;8.20;64.00;;;;;;20724625;28;20049;-76
2022/03/01 22:25:15;;;;;;;4.20;2.35;;;8.20;64.00;;;;;;20757680;28;20474;-76
2022/03/01 22:35:16;;;;;;;4.40;2.53;;;8.30;64.00;;;;;;20738763;28;20077;-76
2022/03/01 22:45:16;;;;;;;4.47;2.20;;;8.30;64.00;;;;;;20706278;28;20508;-76
2022/03/01 22:55:18;;;;;;;5.10;2.07;;;8.20;64.00;;;;;;20720400;28;20117;-76
2022/03/01 23:05:19;;;;;;;6.95;2.83;;;8.20;64.00;;;;;;20703450;28;20388;-76
2022/03/01 23:15:20;;;;;;;4.45;2.35;;;8.30;64.10;;;;;;20719191;28;20062;-77
2022/03/01 23:25:20;;;;;;;6.22;2.47;;;8.30;64.10;;;;;;20717922;28;20049;-76
2022/03/01 23:35:21;;;;;;;5.78;3.05;;;8.20;64.10;;;;;;20735240;28;20065;-76
2022/03/01 23:45:22;;;;;;;6.05;2.53;;;8.20;64.00;;;;;;20716951;28;20380;-76
2022/03/01 23:55:22;;;;;;;4.70;2.35;;;8.20;64.00;;;;;;20715765;28;20332;-77
